Disclaimer

Please do not use the information listed here in-flight or in-navigation, as they are not provided to us by the airports but are provided by volunteers, so they might be outdated.

Search


Regions


Airport information page

Radio informations:
ALGER TWR - 118.7 MHz
ALGER GND - 121.8 MHz
ALGER APP - 121.4 MHz

Airport informations:
Latitude: 36° 41' 27.65" N
Longitude: 003° 12' 55.47" E
Elevation: 82 feet - 25 meters
Operating hours: N/A
Operating agency: Civil government, landing fees and diplomatic clearance may be required
Timezone: UTC+1
Fuel: N/A

Runway information:
05/23 - 11483 x 197 feet< - >3500 x 60 meters
09/27 - 11483 x 148 feet< - >3500 x 45 meters

Recent METARs:
DAAG 131800Z 09006KT 9999 FEW023 20/15 Q1023
DAAG 131830Z 08005KT 9999 FEW023 19/15 Q1023
DAAG 131900Z 17005KT 9999 FEW023 18/14 Q1023

Airport on the map: